Time;durP1;ratioP1;P1;durP2;ratioP2;P2;SDS_P1;SDS_P2;PMS_P1;PMS_P2;Temp;Humidity;BMP_temperature;BMP_pressure;BME280_temperature;BME280_humidity;BME280_pressure;Samples;Min_cycle;Max_cycle;Signal;HPM_P1;HPM_P2
2024/01/03 00:00:06;;;;;;;3.20;0.70;;;11.50;99.90;;;;;;5040068;28;20737;-69
2024/01/03 00:02:31;;;;;;;5.38;0.68;;;11.60;99.90;;;;;;5042021;28;20024;-69
2024/01/03 00:04:58;;;;;;;4.88;0.82;;;11.60;99.90;;;;;;5043648;28;20185;-70
2024/01/03 00:07:23;;;;;;;3.72;0.70;;;11.70;99.90;;;;;;5042945;28;20040;-70
2024/01/03 00:09:55;;;;;;;8.00;0.65;;;11.70;99.90;;;;;;5048405;28;20041;-69
2024/01/03 00:12:23;;;;;;;3.00;0.57;;;11.60;99.90;;;;;;5041297;28;20057;-70
2024/01/03 00:14:49;;;;;;;;;;;11.70;99.90;;;;;;5029758;28;20025;-70
2024/01/03 00:17:14;;;;;;;4.35;0.77;;;11.70;99.90;;;;;;5050948;28;19909;-69
2024/01/03 00:19:44;;;;;;;3.83;0.50;;;11.70;99.90;;;;;;5050238;28;20025;-69
2024/01/03 00:22:11;;;;;;;3.17;0.75;;;11.70;99.90;;;;;;5049915;28;20094;-70
2024/01/03 00:24:46;;;;;;;8.75;1.02;;;11.70;99.90;;;;;;5046670;28;20086;-69
2024/01/03 00:27:14;;;;;;;3.28;0.75;;;11.70;99.90;;;;;;5049137;28;20028;-69
2024/01/03 00:29:53;;;;;;;3.63;0.70;;;11.70;99.90;;;;;;5048326;28;20024;-70
2024/01/03 00:32:22;;;;;;;4.72;0.90;;;11.80;99.90;;;;;;5043922;28;20029;-70
2024/01/03 00:34:54;;;;;;;7.72;0.98;;;11.70;99.90;;;;;;5043961;28;20032;-70
2024/01/03 00:37:23;;;;;;;7.38;1.25;;;11.80;99.90;;;;;;5038637;28;20502;-69
2024/01/03 00:39:49;;;;;;;6.68;1.00;;;11.80;99.90;;;;;;5048473;28;20434;-70
2024/01/03 00:42:15;;;;;;;4.50;0.73;;;11.80;99.90;;;;;;5046070;28;20017;-70
2024/01/03 00:44:40;;;;;;;3.33;0.70;;;11.80;99.90;;;;;;5048062;28;20032;-70
2024/01/03 00:47:06;;;;;;;6.47;1.05;;;11.80;99.90;;;;;;5051982;22;20538;-69
2024/01/03 00:49:33;;;;;;;6.15;1.27;;;11.80;99.90;;;;;;5039874;28;20095;-69
2024/01/03 00:52:00;;;;;;;5.72;0.98;;;11.90;99.90;;;;;;5045181;28;20033;-70
2024/01/03 00:54:30;;;;;;;7.88;1.08;;;11.80;99.90;;;;;;5025414;28;20029;-70
2024/01/03 00:56:59;;;;;;;9.50;1.60;;;11.80;99.90;;;;;;5045538;28;20368;-70
2024/01/03 00:59:24;;;;;;;12.07;1.00;;;11.80;99.90;;;;;;5042418;28;20045;-70
2024/01/03 01:01:51;;;;;;;6.72;0.90;;;11.80;99.90;;;;;;5047098;28;20075;-70
2024/01/03 01:04:16;;;;;;;7.25;1.45;;;11.80;99.90;;;;;;5042287;28;20028;-70
2024/01/03 01:06:44;;;;;;;12.10;1.27;;;11.70;99.90;;;;;;5047101;28;20586;-69
2024/01/03 01:09:12;;;;;;;;;;;11.70;99.90;;;;;;5046537;28;20029;-70
2024/01/03 01:11:40;;;;;;;7.28;1.60;;;11.70;99.90;;;;;;5046723;28;19909;-70
2024/01/03 01:14:05;;;;;;;10.05;1.30;;;11.70;99.90;;;;;;5045434;28;20029;-70
2024/01/03 01:16:31;;;;;;;7.55;1.23;;;11.70;99.90;;;;;;5046550;28;20036;-69
2024/01/03 01:18:59;;;;;;;11.02;1.23;;;11.60;99.90;;;;;;5040551;28;20033;-69
2024/01/03 01:21:24;;;;;;;7.70;1.10;;;11.60;99.90;;;;;;5044344;28;20098;-69
2024/01/03 01:23:50;;;;;;;7.57;0.85;;;11.70;99.90;;;;;;5041465;28;20445;-70
2024/01/03 01:26:18;;;;;;;13.15;1.65;;;11.60;99.90;;;;;;5048398;28;20075;-69
2024/01/03 01:28:43;;;;;;;;;;;11.60;99.90;;;;;;5045394;28;20033;-70
2024/01/03 01:31:09;;;;;;;10.90;1.33;;;11.60;99.90;;;;;;5046711;28;20100;-70
2024/01/03 01:33:34;;;;;;;9.75;1.25;;;11.70;99.90;;;;;;5047738;28;20553;-69
2024/01/03 01:36:01;;;;;;;6.07;1.23;;;11.60;99.90;;;;;;5045146;28;20150;-69
2024/01/03 01:38:26;;;;;;;7.90;1.58;;;11.60;99.90;;;;;;5046666;28;20107;-70
2024/01/03 01:40:54;;;;;;;6.32;1.67;;;11.60;99.90;;;;;;5043946;28;20143;-70
2024/01/03 01:43:20;;;;;;;9.25;1.25;;;11.60;99.90;;;;;;5045947;28;20033;-70
2024/01/03 01:45:47;;;;;;;10.60;1.55;;;11.50;99.90;;;;;;5045636;28;20021;-70
2024/01/03 01:48:15;;;;;;;9.15;2.25;;;11.50;99.90;;;;;;5043189;28;20047;-69
2024/01/03 01:50:41;;;;;;;10.77;1.33;;;11.50;99.90;;;;;;5042115;28;20111;-69
2024/01/03 01:53:07;;;;;;;7.00;1.17;;;11.50;99.90;;;;;;5046224;28;20151;-69
2024/01/03 01:55:38;;;;;;;5.28;1.05;;;11.40;99.90;;;;;;5046176;28;20115;-70
2024/01/03 01:58:09;;;;;;;10.38;1.88;;;11.50;99.90;;;;;;5044238;28;20103;-69
2024/01/03 02:00:36;;;;;;;7.05;1.88;;;11.50;99.90;;;;;;5042513;28;20017;-69
2024/01/03 02:03:02;;;;;;;8.98;1.38;;;11.40;99.90;;;;;;5042696;28;20060;-69
2024/01/03 02:05:28;;;;;;;7.65;1.42;;;11.40;99.90;;;;;;5043024;28;20063;-70
2024/01/03 02:07:56;;;;;;;7.05;1.23;;;11.40;99.90;;;;;;5041723;28;20080;-70
2024/01/03 02:10:22;;;;;;;;;;;11.50;99.90;;;;;;5045409;28;20036;-70
2024/01/03 02:12:51;;;;;;;13.70;1.55;;;11.40;99.90;;;;;;5045264;28;19913;-69
2024/01/03 02:15:23;;;;;;;11.73;1.70;;;11.40;99.90;;;;;;5047704;28;20020;-69
2024/01/03 02:17:52;;;;;;;7.82;1.48;;;11.30;99.90;;;;;;5043423;28;20025;-70
2024/01/03 02:20:17;;;;;;;11.40;1.73;;;11.30;99.90;;;;;;5043584;28;20326;-69
2024/01/03 02:22:45;;;;;;;15.15;2.25;;;11.30;99.90;;;;;;5038810;28;20049;-70
2024/01/03 02:25:11;;;;;;;8.27;1.80;;;11.30;99.90;;;;;;5042671;28;20036;-69
2024/01/03 02:27:37;;;;;;;11.95;1.50;;;11.30;99.90;;;;;;5025451;28;20041;-70
2024/01/03 02:30:04;;;;;;;19.98;2.28;;;11.30;99.90;;;;;;5041141;28;20116;-69
2024/01/03 02:32:29;;;;;;;8.10;1.17;;;11.30;99.90;;;;;;5044115;28;20471;-70
2024/01/03 02:34:55;;;;;;;5.25;1.30;;;11.40;99.90;;;;;;5040563;28;20039;-69
2024/01/03 02:37:22;;;;;;;10.40;1.60;;;11.30;99.90;;;;;;5046473;28;20395;-70
2024/01/03 02:39:50;;;;;;;9.40;1.42;;;11.40;99.90;;;;;;5046254;28;20028;-70
2024/01/03 02:42:16;;;;;;;;;;;11.40;99.90;;;;;;5043559;28;20021;-69
2024/01/03 02:44:41;;;;;;;8.27;1.38;;;11.40;99.90;;;;;;5044726;28;19940;-70
2024/01/03 02:47:07;;;;;;;6.15;0.88;;;11.40;99.90;;;;;;5044298;28;20124;-70
2024/01/03 02:49:33;;;;;;;11.32;1.58;;;11.40;99.90;;;;;;5046730;28;20051;-69
2024/01/03 02:52:00;;;;;;;6.15;1.05;;;11.50;99.90;;;;;;5043521;28;20048;-69
2024/01/03 02:54:27;;;;;;;9.30;1.38;;;11.50;99.90;;;;;;5042450;28;20037;-69
2024/01/03 02:56:53;;;;;;;9.20;1.55;;;11.50;99.90;;;;;;5038084;28;20041;-70
2024/01/03 02:59:19;;;;;;;6.20;1.40;;;11.60;99.90;;;;;;5041354;28;20031;-70
2024/01/03 03:01:45;;;;;;;9.38;1.55;;;11.60;99.90;;;;;;5040716;28;20037;-69
2024/01/03 03:04:10;;;;;;;16.13;1.40;;;11.60;99.90;;;;;;5044498;28;20443;-70
2024/01/03 03:06:36;;;;;;;9.88;1.55;;;11.60;99.90;;;;;;5022855;28;20037;-70
2024/01/03 03:09:04;;;;;;;9.85;1.60;;;11.60;99.90;;;;;;5042452;28;20041;-70
2024/01/03 03:11:32;;;;;;;;;;;11.60;99.90;;;;;;5045338;28;20033;-70
2024/01/03 03:14:00;;;;;;;10.00;1.60;;;11.60;99.90;;;;;;5040058;28;20291;-70
2024/01/03 03:16:27;;;;;;;10.75;1.83;;;11.60;99.90;;;;;;5038791;28;20034;-70
2024/01/03 03:18:53;;;;;;;5.32;1.05;;;11.60;99.90;;;;;;5037026;28;20026;-70
2024/01/03 03:21:23;;;;;;;13.70;1.25;;;11.60;99.90;;;;;;5041121;28;20032;-69
2024/01/03 03:23:51;;;;;;;9.32;1.10;;;11.60;99.90;;;;;;5040822;28;20035;-69
2024/01/03 03:26:17;;;;;;;9.93;1.60;;;11.70;99.90;;;;;;5040759;28;20033;-69
2024/01/03 03:28:42;;;;;;;6.32;1.23;;;11.70;99.90;;;;;;5040597;28;20498;-70
2024/01/03 03:31:08;;;;;;;14.30;1.55;;;11.60;99.90;;;;;;5043328;28;20108;-69
2024/01/03 03:33:34;;;;;;;15.88;1.85;;;11.60;99.90;;;;;;5040375;28;20037;-69
2024/01/03 03:35:59;;;;;;;13.18;1.70;;;11.70;99.90;;;;;;5041633;28;20732;-69
2024/01/03 03:38:29;;;;;;;13.40;2.08;;;11.60;99.90;;;;;;5040075;28;20548;-70
2024/01/03 03:40:55;;;;;;;8.23;1.73;;;11.70;99.90;;;;;;5041438;28;20025;-69
2024/01/03 03:43:20;;;;;;;7.68;1.80;;;11.70;99.90;;;;;;5037969;28;20529;-70
2024/01/03 03:45:46;;;;;;;7.93;1.42;;;11.70;99.90;;;;;;5038054;28;20683;-70
2024/01/03 03:48:14;;;;;;;13.10;1.48;;;11.70;99.90;;;;;;5036113;28;20045;-70
2024/01/03 03:50:40;;;;;;;8.13;1.60;;;11.70;99.90;;;;;;5041762;28;20025;-69
2024/01/03 03:53:10;;;;;;;7.85;1.33;;;11.70;99.90;;;;;;5040865;28;20482;-70
2024/01/03 03:55:40;;;;;;;9.80;1.23;;;11.70;99.90;;;;;;5037469;28;20033;-69
2024/01/03 03:58:08;;;;;;;10.88;1.25;;;11.70;99.90;;;;;;5041421;28;20026;-69
2024/01/03 04:00:34;;;;;;;;;;;11.70;99.90;;;;;;5044861;28;20048;-70
2024/01/03 04:02:59;;;;;;;5.05;1.08;;;11.70;99.90;;;;;;5038068;28;19924;-69
2024/01/03 04:05:27;;;;;;;10.93;1.40;;;11.70;99.90;;;;;;5041143;28;20678;-70
2024/01/03 04:07:53;;;;;;;9.23;1.20;;;11.70;99.90;;;;;;5042978;28;20029;-69
2024/01/03 04:10:18;;;;;;;10.20;1.40;;;11.70;99.90;;;;;;5036855;28;20033;-69
2024/01/03 04:12:44;;;;;;;9.65;1.45;;;11.70;99.90;;;;;;5041113;28;20045;-70
2024/01/03 04:15:12;;;;;;;10.48;1.40;;;11.70;99.90;;;;;;5050639;28;20036;-69
2024/01/03 04:17:37;;;;;;;;;;;11.70;99.90;;;;;;5047911;28;20029;-69
2024/01/03 04:20:03;;;;;;;8.38;1.10;;;11.70;99.90;;;;;;5048801;28;19935;-69
2024/01/03 04:22:29;;;;;;;12.25;1.40;;;11.70;99.90;;;;;;5045095;28;20046;-70
2024/01/03 04:24:54;;;;;;;14.05;1.65;;;11.60;99.90;;;;;;5046587;28;20021;-69
2024/01/03 04:27:20;;;;;;;11.27;1.85;;;11.60;99.90;;;;;;5045941;28;20554;-69
2024/01/03 04:29:46;;;;;;;8.82;1.23;;;11.50;99.90;;;;;;5043621;28;20584;-69
2024/01/03 04:32:11;;;;;;;10.02;1.40;;;11.50;99.90;;;;;;5047653;28;20478;-69
2024/01/03 04:34:40;;;;;;;13.23;1.85;;;11.50;99.90;;;;;;5046327;28;20368;-69
2024/01/03 04:37:05;;;;;;;8.55;1.55;;;11.50;99.90;;;;;;5042628;28;20017;-70
2024/01/03 04:39:31;;;;;;;6.85;1.48;;;11.50;99.90;;;;;;5041777;28;20106;-69
2024/01/03 04:41:56;;;;;;;10.32;1.50;;;11.50;99.90;;;;;;5048880;28;20033;-70
2024/01/03 04:44:22;;;;;;;9.10;1.48;;;11.50;99.90;;;;;;5046083;28;20017;-69
2024/01/03 04:46:47;;;;;;;4.93;1.33;;;11.50;99.90;;;;;;5044178;28;20050;-69
2024/01/03 04:49:15;;;;;;;7.22;1.23;;;11.50;99.90;;;;;;5046371;28;20067;-69
2024/01/03 04:51:41;;;;;;;7.05;1.15;;;11.50;99.90;;;;;;5026416;28;20638;-69
2024/01/03 04:54:07;;;;;;;13.35;3.08;;;11.50;99.90;;;;;;5047368;28;20025;-70
2024/01/03 04:56:35;;;;;;;9.18;1.63;;;11.50;99.90;;;;;;5047548;28;20040;-69
2024/01/03 04:59:03;;;;;;;;;;;11.50;99.90;;;;;;5047379;28;20624;-70
2024/01/03 05:01:30;;;;;;;13.60;1.70;;;11.40;99.90;;;;;;5042831;28;19970;-70
2024/01/03 05:03:59;;;;;;;15.00;1.33;;;11.40;99.90;;;;;;5047508;28;20067;-69
2024/01/03 05:06:27;;;;;;;3.97;1.27;;;11.30;99.90;;;;;;5047495;28;20025;-70
2024/01/03 05:08:53;;;;;;;10.68;1.25;;;11.30;99.90;;;;;;5046471;28;20025;-69
2024/01/03 05:11:18;;;;;;;9.70;1.65;;;11.20;99.90;;;;;;5045394;28;20029;-69
2024/01/03 05:13:44;;;;;;;9.15;1.27;;;11.20;99.90;;;;;;5047406;28;20021;-69
2024/01/03 05:16:10;;;;;;;10.35;1.55;;;11.20;99.90;;;;;;5045705;28;20464;-69
2024/01/03 05:18:36;;;;;;;9.50;1.42;;;11.20;99.90;;;;;;5046968;28;20100;-69
2024/01/03 05:21:02;;;;;;;8.32;1.65;;;11.20;99.90;;;;;;5041396;28;20648;-69
2024/01/03 05:23:28;;;;;;;7.47;1.65;;;11.10;99.90;;;;;;5046898;28;20061;-69
2024/01/03 05:25:53;;;;;;;11.90;1.98;;;11.10;99.90;;;;;;5045815;28;20033;-69
2024/01/03 05:28:21;;;;;;;9.48;1.45;;;11.10;99.90;;;;;;5046872;28;20029;-69
2024/01/03 05:30:46;;;;;;;7.22;1.20;;;11.10;99.90;;;;;;5040788;28;20044;-69
2024/01/03 05:33:12;;;;;;;8.75;1.35;;;11.00;99.90;;;;;;5040642;28;20036;-70
2024/01/03 05:35:40;;;;;;;12.55;1.40;;;11.00;99.90;;;;;;5047333;28;20033;-70
2024/01/03 05:38:06;;;;;;;9.25;1.83;;;11.00;99.90;;;;;;5046542;28;20021;-69
2024/01/03 05:40:31;;;;;;;5.65;1.17;;;11.00;99.90;;;;;;5046471;28;20047;-70
2024/01/03 05:42:57;;;;;;;11.15;1.40;;;11.00;99.90;;;;;;5044438;28;20083;-69
2024/01/03 05:45:25;;;;;;;8.98;1.17;;;11.00;99.90;;;;;;5044183;28;20503;-69
2024/01/03 05:47:50;;;;;;;9.68;1.45;;;11.00;99.90;;;;;;5043469;28;20398;-69
2024/01/03 05:50:16;;;;;;;11.35;1.27;;;11.00;99.90;;;;;;5045912;28;20036;-70
2024/01/03 05:52:42;;;;;;;9.38;1.40;;;11.00;99.90;;;;;;5046721;28;20391;-69
2024/01/03 05:55:07;;;;;;;5.15;1.55;;;11.10;99.90;;;;;;5043541;28;20037;-69
2024/01/03 05:57:33;;;;;;;8.23;1.20;;;11.00;99.90;;;;;;5041749;28;20663;-69
2024/01/03 05:59:59;;;;;;;11.40;1.40;;;11.00;99.90;;;;;;5028363;28;20111;-69
2024/01/03 06:02:24;;;;;;;4.15;1.02;;;11.10;99.90;;;;;;5040392;28;20122;-69
2024/01/03 06:04:52;;;;;;;5.35;0.85;;;11.10;99.90;;;;;;5044940;28;20034;-69
2024/01/03 06:07:18;;;;;;;5.03;1.08;;;11.10;99.90;;;;;;5042550;28;20771;-69
2024/01/03 06:09:46;;;;;;;7.32;1.10;;;11.10;99.90;;;;;;5044533;28;20047;-69
2024/01/03 06:12:11;;;;;;;5.60;1.55;;;11.10;99.90;;;;;;5046328;28;20601;-69
2024/01/03 06:14:37;;;;;;;9.00;1.35;;;11.10;99.90;;;;;;5044723;28;20029;-69
2024/01/03 06:17:05;;;;;;;9.52;1.33;;;11.10;99.90;;;;;;5044196;28;20029;-69
2024/01/03 06:19:33;;;;;;;;;;;11.10;99.90;;;;;;5043666;28;20072;-70
2024/01/03 06:21:58;;;;;;;;;;;11.00;99.90;;;;;;5047335;28;19912;-69
2024/01/03 06:24:26;;;;;;;9.45;1.30;;;11.00;99.90;;;;;;5044812;28;19923;-69
2024/01/03 06:26:52;;;;;;;12.63;2.17;;;11.00;99.90;;;;;;5041636;28;20033;-69
2024/01/03 06:29:17;;;;;;;7.13;1.23;;;11.00;99.90;;;;;;5043351;28;20025;-69
2024/01/03 06:31:45;;;;;;;10.25;1.25;;;10.90;99.90;;;;;;5044651;28;20078;-69
2024/01/03 06:34:11;;;;;;;;;;;10.90;99.90;;;;;;5037946;28;20051;-70
2024/01/03 06:36:39;;;;;;;8.45;1.67;;;10.90;99.90;;;;;;5044042;28;20541;-69
2024/01/03 06:39:04;;;;;;;7.70;1.35;;;10.80;99.90;;;;;;5044548;28;20079;-69
2024/01/03 06:41:30;;;;;;;9.98;1.77;;;10.80;99.90;;;;;;5043789;28;20052;-69
2024/01/03 06:43:56;;;;;;;13.52;1.90;;;10.80;99.90;;;;;;5046230;28;20028;-69
2024/01/03 06:46:26;;;;;;;8.07;1.55;;;10.80;99.90;;;;;;5051685;22;20044;-70
2024/01/03 06:48:56;;;;;;;11.75;2.40;;;10.80;99.90;;;;;;5063753;28;20234;-69
2024/01/03 06:51:22;;;;;;;15.65;1.58;;;10.80;99.90;;;;;;5062041;28;20032;-69
2024/01/03 06:53:50;;;;;;;9.85;2.05;;;10.80;99.90;;;;;;5063104;28;20127;-69
2024/01/03 06:56:24;;;;;;;12.27;1.60;;;10.80;99.90;;;;;;5046364;28;20123;-70
2024/01/03 06:58:53;;;;;;;14.25;2.20;;;10.80;99.90;;;;;;5062841;28;20024;-69
2024/01/03 07:01:18;;;;;;;8.93;1.15;;;10.80;99.90;;;;;;5065030;28;20021;-69
2024/01/03 07:03:44;;;;;;;11.77;2.05;;;10.80;99.90;;;;;;5061332;28;20411;-69
2024/01/03 07:06:10;;;;;;;8.15;1.80;;;10.80;99.90;;;;;;5062443;28;20033;-70
2024/01/03 07:08:35;;;;;;;10.40;1.63;;;10.80;99.90;;;;;;5061105;28;20491;-70
2024/01/03 07:11:03;;;;;;;8.82;1.10;;;10.80;99.90;;;;;;5058544;28;20169;-70
2024/01/03 07:13:29;;;;;;;6.47;1.65;;;10.80;99.90;;;;;;5057244;28;20500;-70
2024/01/03 07:15:59;;;;;;;12.15;2.38;;;10.80;99.90;;;;;;5061062;28;20628;-70
2024/01/03 07:18:25;;;;;;;6.60;1.92;;;10.80;99.90;;;;;;5065218;28;20020;-70
2024/01/03 07:20:50;;;;;;;8.13;1.63;;;10.80;99.90;;;;;;5062360;28;20036;-71
2024/01/03 07:23:17;;;;;;;9.82;1.48;;;10.90;99.90;;;;;;5062646;28;20298;-70
2024/01/03 07:25:42;;;;;;;7.93;1.45;;;10.90;99.90;;;;;;5060312;28;20643;-70
2024/01/03 07:28:10;;;;;;;11.30;1.50;;;10.90;99.90;;;;;;5065714;28;20111;-70
2024/01/03 07:30:39;;;;;;;8.13;1.02;;;11.00;99.90;;;;;;5061622;28;20551;-70
2024/01/03 07:33:04;;;;;;;10.35;1.48;;;10.90;99.90;;;;;;5061939;28;20115;-70
2024/01/03 07:35:34;;;;;;;6.60;1.35;;;11.00;99.90;;;;;;5058966;28;20112;-70
2024/01/03 07:38:03;;;;;;;7.30;1.52;;;11.00;99.90;;;;;;5059962;28;20078;-70
2024/01/03 07:40:31;;;;;;;;;;;11.00;99.90;;;;;;5062986;28;20029;-70
2024/01/03 07:42:56;;;;;;;4.05;0.93;;;11.00;99.90;;;;;;5060786;28;19981;-70
2024/01/03 07:45:22;;;;;;;13.90;2.38;;;11.10;99.90;;;;;;5045422;28;20032;-70
2024/01/03 07:47:49;;;;;;;10.05;1.48;;;11.10;99.90;;;;;;5063440;28;20124;-70
2024/01/03 07:50:18;;;;;;;5.78;1.42;;;11.10;99.90;;;;;;5064191;28;20033;-70
2024/01/03 07:52:44;;;;;;;6.10;1.23;;;11.10;99.90;;;;;;5063162;28;20029;-70
2024/01/03 07:55:10;;;;;;;8.63;1.83;;;11.10;99.90;;;;;;5065042;28;20482;-70
2024/01/03 07:57:36;;;;;;;7.30;1.67;;;11.20;99.90;;;;;;5062247;28;20148;-70
2024/01/03 08:00:05;;;;;;;8.73;1.52;;;11.10;99.90;;;;;;5060672;28;20115;-69
2024/01/03 08:02:33;;;;;;;8.35;1.50;;;11.20;99.90;;;;;;5043074;28;20094;-69
2024/01/03 08:04:59;;;;;;;8.50;1.50;;;11.20;99.90;;;;;;5058841;28;20025;-69
2024/01/03 08:07:26;;;;;;;4.95;1.02;;;11.20;99.90;;;;;;5056623;28;20040;-69
2024/01/03 08:09:54;;;;;;;9.70;1.38;;;11.20;99.90;;;;;;5065506;28;20036;-69
2024/01/03 08:12:20;;;;;;;;;;;11.20;99.90;;;;;;5062442;28;20081;-69
2024/01/03 08:14:48;;;;;;;11.30;1.95;;;11.20;99.90;;;;;;5061880;28;19908;-70
2024/01/03 08:17:16;;;;;;;;;;;11.30;99.90;;;;;;5063318;28;20025;-70
2024/01/03 08:19:41;;;;;;;;;;;11.20;99.90;;;;;;5063603;28;19915;-70
2024/01/03 08:22:07;;;;;;;10.75;1.77;;;11.30;99.90;;;;;;5061120;28;19924;-70
2024/01/03 08:24:35;;;;;;;7.28;1.60;;;11.30;99.90;;;;;;5058180;28;20021;-69
2024/01/03 08:27:01;;;;;;;;;;;11.30;99.90;;;;;;5056094;28;20450;-70
2024/01/03 08:29:30;;;;;;;9.57;1.77;;;11.30;99.90;;;;;;5062266;28;19931;-70
2024/01/03 08:31:58;;;;;;;8.15;1.05;;;11.30;99.90;;;;;;5058399;28;20545;-69
2024/01/03 08:34:23;;;;;;;;;;;11.30;99.90;;;;;;5064233;28;20020;-70
2024/01/03 08:36:51;;;;;;;10.40;1.38;;;11.30;99.90;;;;;;5063595;28;19998;-69
2024/01/03 08:39:20;;;;;;;8.10;1.40;;;11.30;99.90;;;;;;5065380;28;20056;-71
2024/01/03 08:41:47;;;;;;;7.63;1.27;;;11.30;99.90;;;;;;5063205;28;20028;-69
2024/01/03 08:44:13;;;;;;;6.47;1.00;;;11.30;99.90;;;;;;5060534;28;20111;-70
2024/01/03 08:46:42;;;;;;;2.55;0.70;;;11.30;99.90;;;;;;5062447;28;20029;-70
2024/01/03 08:49:07;;;;;;;;;;;11.30;99.90;;;;;;5064479;28;20514;-70
2024/01/03 08:51:33;;;;;;;5.63;1.20;;;11.40;99.90;;;;;;5058736;28;19909;-69
2024/01/03 08:53:59;;;;;;;8.00;1.20;;;11.40;99.90;;;;;;5060640;28;20024;-71
2024/01/03 08:56:24;;;;;;;2.03;0.80;;;11.30;99.90;;;;;;5061988;28;20020;-69
2024/01/03 08:58:52;;;;;;;12.40;1.23;;;11.30;99.90;;;;;;5062227;28;20025;-70
2024/01/03 09:01:22;;;;;;;3.50;0.88;;;11.30;99.90;;;;;;5063058;28;20030;-70
2024/01/03 09:03:52;;;;;;;4.18;0.88;;;11.40;99.90;;;;;;5062694;28;20115;-69
2024/01/03 09:06:21;;;;;;;3.03;0.80;;;11.40;99.90;;;;;;5061114;28;20086;-69
2024/01/03 09:08:50;;;;;;;3.05;0.80;;;11.40;99.90;;;;;;5065538;28;20028;-69
2024/01/03 09:11:22;;;;;;;6.47;0.73;;;11.40;99.90;;;;;;5065374;28;20024;-69
2024/01/03 09:13:49;;;;;;;2.42;0.60;;;11.40;99.90;;;;;;5059795;28;20052;-67
2024/01/03 09:16:20;;;;;;;6.72;0.90;;;11.30;99.90;;;;;;5064619;28;20106;-68
2024/01/03 09:18:49;;;;;;;3.30;0.55;;;11.40;99.90;;;;;;5055171;28;20035;-68
2024/01/03 09:21:15;;;;;;;5.38;0.98;;;11.40;99.90;;;;;;5056478;28;20028;-68
2024/01/03 09:23:41;;;;;;;8.05;1.02;;;11.30;99.90;;;;;;5060388;28;20029;-69
2024/01/03 09:26:08;;;;;;;5.60;0.68;;;11.30;99.90;;;;;;5062751;28;20506;-68
2024/01/03 09:28:37;;;;;;;2.88;0.90;;;11.30;99.90;;;;;;5066601;28;20013;-69
2024/01/03 09:31:03;;;;;;;3.75;0.98;;;11.30;99.90;;;;;;5060449;28;20410;-69
2024/01/03 09:33:43;;;;;;;4.57;0.82;;;11.30;99.90;;;;;;5063268;28;20020;-69
2024/01/03 09:36:22;;;;;;;5.00;1.02;;;11.30;99.90;;;;;;5062315;28;20024;-69
2024/01/03 09:38:48;;;;;;;5.60;1.00;;;11.30;99.90;;;;;;5059670;28;20024;-69
2024/01/03 09:41:17;;;;;;;3.38;0.77;;;11.30;99.90;;;;;;5061937;28;20012;-69
2024/01/03 09:43:45;;;;;;;2.83;0.68;;;11.30;99.90;;;;;;5064808;28;20052;-69
2024/01/03 09:46:11;;;;;;;;;;;11.30;99.90;;;;;;5066175;28;20074;-69
2024/01/03 09:48:41;;;;;;;3.50;0.73;;;11.30;99.90;;;;;;5065855;28;19920;-69
2024/01/03 09:51:10;;;;;;;6.07;0.90;;;11.30;99.90;;;;;;5065965;28;20032;-69
2024/01/03 09:53:37;;;;;;;4.80;0.65;;;11.30;99.90;;;;;;5060985;28;20060;-69
2024/01/03 09:56:07;;;;;;;8.85;1.30;;;11.30;99.90;;;;;;5060608;28;20020;-69
2024/01/03 09:58:36;;;;;;;6.03;0.82;;;11.30;99.90;;;;;;5046837;28;20032;-69
2024/01/03 10:01:02;;;;;;;3.10;0.50;;;11.30;99.90;;;;;;5059488;28;20078;-69
2024/01/03 10:03:28;;;;;;;3.08;0.82;;;11.40;99.90;;;;;;5059215;28;20025;-69
2024/01/03 10:06:15;;;;;;;1.88;0.43;;;11.40;99.90;;;;;;5058592;28;20028;-69
2024/01/03 10:08:58;;;;;;;2.83;0.57;;;11.30;99.90;;;;;;5061672;28;20036;-69
2024/01/03 10:11:26;;;;;;;3.30;0.60;;;11.30;99.90;;;;;;5059717;28;20052;-69
2024/01/03 10:13:55;;;;;;;;;;;11.40;99.90;;;;;;5064028;28;20021;-69
2024/01/03 10:16:26;;;;;;;1.75;0.45;;;11.30;99.90;;;;;;5062430;28;19912;-69
2024/01/03 10:19:11;;;;;;;2.45;0.60;;;11.30;99.90;;;;;;5060734;28;20028;-69
2024/01/03 10:21:40;;;;;;;5.18;0.47;;;11.40;99.90;;;;;;5057715;28;20033;-69
2024/01/03 10:24:07;;;;;;;0.70;0.35;;;11.30;99.90;;;;;;5062405;28;20021;-69
2024/01/03 10:26:33;;;;;;;3.15;0.40;;;11.30;99.90;;;;;;5061581;28;20025;-70
2024/01/03 10:29:23;;;;;;;0.75;0.40;;;11.30;99.90;;;;;;5059165;28;20033;-69
2024/01/03 10:31:49;;;;;;;1.75;0.45;;;11.30;99.90;;;;;;5062028;28;20040;-69
2024/01/03 10:34:21;;;;;;;0.85;0.30;;;11.30;99.90;;;;;;5061277;28;20033;-69
2024/01/03 10:36:47;;;;;;;0.90;0.40;;;11.20;99.90;;;;;;5056473;28;20441;-69
2024/01/03 10:39:18;;;;;;;5.30;0.65;;;11.30;99.90;;;;;;5060532;28;20056;-69
2024/01/03 10:41:50;;;;;;;1.95;0.40;;;11.20;99.90;;;;;;5060887;28;20078;-69
2024/01/03 10:44:19;;;;;;;3.15;0.80;;;11.20;99.90;;;;;;5062420;28;20506;-69
2024/01/03 10:46:48;;;;;;;1.98;0.65;;;11.20;99.90;;;;;;5059709;28;20052;-69
2024/01/03 10:49:15;;;;;;;4.18;0.77;;;11.20;99.90;;;;;;5057510;28;20045;-69
2024/01/03 10:51:43;;;;;;;2.72;0.50;;;11.20;99.90;;;;;;5056477;28;20090;-69
2024/01/03 10:54:13;;;;;;;3.85;0.40;;;11.10;99.90;;;;;;5055478;28;20029;-69
2024/01/03 10:56:46;;;;;;;1.05;0.35;;;11.20;99.90;;;;;;5061475;28;20017;-69
2024/01/03 10:59:12;;;;;;;3.00;0.80;;;11.10;99.90;;;;;;5060048;28;20040;-70
2024/01/03 11:01:55;;;;;;;1.65;0.50;;;11.10;99.90;;;;;;5062248;28;20107;-69
2024/01/03 11:04:33;;;;;;;2.63;0.63;;;11.10;99.90;;;;;;5062601;28;20020;-69
2024/01/03 11:07:07;;;;;;;;;;;11.00;99.90;;;;;;5041177;28;20048;-69
2024/01/03 11:09:36;;;;;;;1.55;0.70;;;11.10;99.90;;;;;;5055260;28;20367;-70
2024/01/03 11:12:09;;;;;;;4.15;0.65;;;11.10;99.90;;;;;;5062695;28;20029;-69
2024/01/03 11:14:35;;;;;;;6.38;1.23;;;11.10;99.90;;;;;;5062698;28;20476;-69
2024/01/03 11:17:02;;;;;;;4.65;0.60;;;11.10;99.90;;;;;;5060024;28;20043;-69
2024/01/03 11:19:31;;;;;;;4.13;0.80;;;11.10;99.90;;;;;;5053759;28;20024;-69
2024/01/03 11:22:05;;;;;;;5.47;0.90;;;11.10;99.90;;;;;;5058214;28;20051;-69
2024/01/03 11:24:33;;;;;;;1.95;0.50;;;11.10;99.90;;;;;;5055377;28;21927;-69
2024/01/03 11:27:03;;;;;;;2.50;0.50;;;11.10;99.90;;;;;;5065112;28;20120;-70
2024/01/03 11:29:56;;;;;;;4.38;0.93;;;11.20;99.90;;;;;;5055352;28;20037;-69
2024/01/03 11:32:26;;;;;;;5.95;0.65;;;11.10;99.90;;;;;;5063863;28;20040;-69
2024/01/03 11:34:53;;;;;;;3.03;0.82;;;11.10;99.90;;;;;;5062412;28;20115;-69
2024/01/03 11:37:18;;;;;;;4.70;0.80;;;11.10;99.90;;;;;;5058274;28;20471;-69
2024/01/03 11:39:50;;;;;;;3.53;0.70;;;11.20;99.90;;;;;;5058607;28;20028;-69
2024/01/03 11:42:23;;;;;;;6.43;0.80;;;11.10;99.90;;;;;;5060156;28;20024;-69
2024/01/03 11:45:19;;;;;;;3.13;0.50;;;11.20;99.90;;;;;;5057619;28;20013;-69
2024/01/03 11:47:49;;;;;;;6.10;0.75;;;11.10;99.90;;;;;;5057407;28;20570;-69
2024/01/03 11:50:16;;;;;;;3.42;0.70;;;11.10;99.90;;;;;;5059207;28;20032;-69
2024/01/03 11:52:48;;;;;;;5.95;1.17;;;11.10;99.90;;;;;;5061801;28;20028;-69
2024/01/03 11:55:16;;;;;;;2.30;0.75;;;11.10;99.90;;;;;;5062084;28;20052;-69
2024/01/03 11:57:43;;;;;;;4.13;0.68;;;11.10;99.90;;;;;;5057467;28;20025;-70
2024/01/03 12:00:16;;;;;;;2.05;0.57;;;11.10;99.90;;;;;;5058341;28;20039;-69
2024/01/03 12:02:56;;;;;;;2.83;0.70;;;11.10;99.90;;;;;;5054748;28;20111;-69
2024/01/03 12:05:26;;;;;;;2.47;0.75;;;11.10;99.90;;;;;;5058117;28;20483;-69
2024/01/03 12:07:57;;;;;;;6.05;1.83;;;11.10;99.90;;;;;;5064227;28;20088;-69
2024/01/03 12:10:24;;;;;;;1.17;0.47;;;11.10;99.90;;;;;;5060248;28;20094;-69
2024/01/03 12:12:53;;;;;;;10.25;1.27;;;11.20;99.90;;;;;;5058797;28;20043;-70
2024/01/03 12:15:27;;;;;;;2.67;0.73;;;11.20;99.90;;;;;;5052476;28;20029;-69
2024/01/03 12:17:53;;;;;;;0.90;0.40;;;11.30;99.90;;;;;;5058238;28;20112;-69
2024/01/03 12:20:23;;;;;;;1.85;0.70;;;11.30;99.90;;;;;;5042058;28;20108;-69
2024/01/03 12:22:49;;;;;;;1.63;0.68;;;11.30;99.90;;;;;;5056748;28;20505;-70
2024/01/03 12:25:24;;;;;;;2.58;0.95;;;11.30;99.90;;;;;;5051607;28;20029;-69
2024/01/03 12:28:00;;;;;;;8.57;1.00;;;11.30;99.90;;;;;;5050443;28;20043;-69
2024/01/03 12:30:28;;;;;;;8.88;1.08;;;11.30;99.90;;;;;;5052524;28;20039;-69
2024/01/03 12:33:07;;;;;;;2.38;0.88;;;11.30;99.90;;;;;;5046958;28;20032;-69
2024/01/03 12:35:33;;;;;;;5.78;0.93;;;11.40;99.90;;;;;;5053341;28;20035;-69
2024/01/03 12:38:01;;;;;;;7.40;0.98;;;11.40;99.90;;;;;;5061752;28;20390;-69
2024/01/03 12:40:29;;;;;;;;;;;11.40;99.90;;;;;;5047849;28;20524;-69
2024/01/03 12:42:54;;;;;;;;;;;11.40;99.90;;;;;;5060898;28;19916;-70
2024/01/03 12:45:20;;;;;;;5.18;0.85;;;11.40;99.90;;;;;;5061507;28;20597;-69
2024/01/03 12:47:48;;;;;;;4.03;0.95;;;11.40;99.90;;;;;;5062938;22;20050;-69
2024/01/03 12:50:13;;;;;;;5.90;1.35;;;11.40;99.90;;;;;;5058008;28;20048;-69
2024/01/03 12:52:39;;;;;;;5.65;1.20;;;11.30;99.90;;;;;;5059792;28;20029;-69